Time;durP1;ratioP1;P1;durP2;ratioP2;P2;SDS_P1;SDS_P2;PMS_P1;PMS_P2;Temp;Humidity;BMP_temperature;BMP_pressure;BME280_temperature;BME280_humidity;BME280_pressure;Samples;Min_cycle;Max_cycle;Signal;HPM_P1;HPM_P2
2021/12/13 00:01:08;;;;;;;21.48;11.07;;;4.20;99.90;;;;;;5070103;28;20056;-69
2021/12/13 00:03:45;;;;;;;25.50;11.70;;;4.30;99.90;;;;;;5069699;28;20044;-69
2021/12/13 00:06:16;;;;;;;22.77;11.20;;;4.20;99.90;;;;;;5068789;28;20566;-69
2021/12/13 00:08:45;;;;;;;21.10;10.10;;;4.30;99.90;;;;;;5069761;28;20076;-69
2021/12/13 00:11:17;;;;;;;22.00;10.03;;;4.30;99.90;;;;;;5069479;28;20558;-70
2021/12/13 00:13:47;;;;;;;19.07;8.87;;;4.30;99.90;;;;;;5069446;28;20465;-69
2021/12/13 00:16:16;;;;;;;19.90;9.35;;;4.30;99.90;;;;;;5068865;28;20099;-69
2021/12/13 00:18:47;;;;;;;17.45;9.48;;;4.40;99.90;;;;;;5069947;28;20102;-69
2021/12/13 00:21:19;;;;;;;19.87;11.00;;;4.40;99.90;;;;;;5069726;28;20048;-69
2021/12/13 00:23:50;;;;;;;21.30;9.82;;;4.30;99.90;;;;;;5069874;28;20447;-69
2021/12/13 00:26:27;;;;;;;24.50;12.17;;;4.40;99.90;;;;;;5068846;28;20287;-69
2021/12/13 00:28:56;;;;;;;22.57;11.23;;;4.40;99.90;;;;;;5069188;28;20110;-69
2021/12/13 00:31:34;;;;;;;22.63;11.10;;;4.40;99.90;;;;;;5069489;28;20049;-69
2021/12/13 00:34:19;;;;;;;21.80;10.77;;;4.40;99.90;;;;;;5069450;28;20044;-69
2021/12/13 00:36:50;;;;;;;24.13;11.35;;;4.40;99.90;;;;;;5068529;28;20092;-69
2021/12/13 00:39:21;;;;;;;25.42;11.85;;;4.40;99.90;;;;;;5071654;28;20084;-69
2021/12/13 00:41:50;;;;;;;24.88;12.20;;;4.40;99.90;;;;;;5084461;28;20048;-69
2021/12/13 00:44:20;;;;;;;30.27;12.80;;;4.40;99.90;;;;;;5092287;28;20048;-69
2021/12/13 00:46:52;;;;;;;29.10;13.30;;;4.40;99.90;;;;;;5072555;28;20496;-69
2021/12/13 00:49:22;;;;;;;29.50;12.55;;;4.40;99.90;;;;;;5073230;28;20056;-70
2021/12/13 00:51:52;;;;;;;33.92;14.35;;;4.40;99.90;;;;;;5072856;28;20553;-69
2021/12/13 00:54:32;;;;;;;32.88;13.80;;;4.40;99.90;;;;;;5072949;28;20057;-69
2021/12/13 00:57:40;;;;;;;31.33;14.10;;;4.40;99.90;;;;;;5072332;28;20060;-69
2021/12/13 01:00:15;;;;;;;35.22;13.57;;;4.30;99.90;;;;;;5072615;28;20460;-69
2021/12/13 01:02:47;;;;;;;32.42;13.38;;;4.20;99.90;;;;;;5072740;28;20076;-69
2021/12/13 01:05:18;;;;;;;31.00;13.77;;;4.30;99.90;;;;;;5072157;28;20360;-69
2021/12/13 01:08:10;;;;;;;33.72;14.60;;;4.40;99.90;;;;;;5072731;28;20088;-69
2021/12/13 01:11:19;;;;;;;36.50;14.82;;;4.40;99.90;;;;;;5072754;28;20110;-69
2021/12/13 01:17:01;;;;;;;34.03;14.30;;;4.40;99.90;;;;;;6019314;22;21402;-69
2021/12/13 01:19:48;;;;;;;34.88;15.30;;;4.40;99.90;;;;;;5092238;28;20552;-69
2021/12/13 01:22:42;;;;;;;32.13;14.25;;;4.40;99.90;;;;;;5092453;28;20143;-69
2021/12/13 01:25:37;;;;;;;35.97;15.05;;;4.50;99.90;;;;;;5091696;28;20158;-69
2021/12/13 01:28:09;;;;;;;34.27;13.37;;;4.40;99.90;;;;;;5092196;28;20221;-69
2021/12/13 01:30:39;;;;;;;34.28;13.95;;;4.40;99.90;;;;;;5105759;22;20075;-67
2021/12/13 01:33:09;;;;;;;36.13;14.23;;;4.40;99.90;;;;;;5092797;28;20445;-67
2021/12/13 01:35:40;;;;;;;34.00;14.68;;;4.50;99.90;;;;;;5091946;28;20055;-67
2021/12/13 01:38:10;;;;;;;29.65;12.95;;;4.40;99.90;;;;;;5093077;28;20056;-67
2021/12/13 01:40:43;;;;;;;31.13;13.07;;;4.40;99.90;;;;;;5092442;28;20105;-67
2021/12/13 01:43:14;;;;;;;29.75;13.10;;;4.40;99.90;;;;;;5092574;28;20686;-67
2021/12/13 01:45:42;;;;;;;36.92;14.55;;;4.40;99.90;;;;;;5091641;28;20330;-67
2021/12/13 01:48:18;;;;;;;34.92;13.77;;;4.40;99.90;;;;;;5092512;28;20425;-67
2021/12/13 01:50:53;;;;;;;30.95;13.65;;;4.50;99.90;;;;;;5092709;28;20052;-67
2021/12/13 01:53:36;;;;;;;35.10;14.00;;;4.40;99.90;;;;;;5102415;28;20060;-67
2021/12/13 01:56:12;;;;;;;31.95;13.77;;;4.40;99.90;;;;;;5106261;28;20048;-68
2021/12/13 01:58:42;;;;;;;39.50;15.15;;;4.40;99.90;;;;;;5097126;28;20518;-68
2021/12/13 02:01:16;;;;;;;32.00;14.32;;;4.40;99.90;;;;;;5093168;28;20113;-70
2021/12/13 02:03:54;;;;;;;32.08;14.48;;;4.50;99.90;;;;;;5092656;28;20078;-68
2021/12/13 02:06:42;;;;;;;35.50;15.60;;;4.40;99.90;;;;;;5091553;28;20524;-68
2021/12/13 02:09:15;;;;;;;37.53;14.30;;;4.50;99.90;;;;;;5092219;28;20045;-68
2021/12/13 02:11:45;;;;;;;37.90;14.43;;;4.50;99.90;;;;;;5091888;28;20221;-68
2021/12/13 02:14:17;;;;;;;40.35;14.95;;;4.60;99.90;;;;;;5092237;28;20048;-68
2021/12/13 02:17:08;;;;;;;38.08;15.20;;;4.50;99.90;;;;;;5091591;28;20058;-68
2021/12/13 02:19:44;;;;;;;35.08;14.70;;;4.40;99.90;;;;;;5092074;28;20052;-67
2021/12/13 02:22:35;;;;;;;43.85;15.85;;;4.40;99.90;;;;;;5091730;28;20115;-68
2021/12/13 02:25:10;;;;;;;39.70;14.88;;;4.40;99.90;;;;;;5091172;28;20048;-68
2021/12/13 02:27:40;;;;;;;41.30;16.45;;;4.40;99.90;;;;;;5091395;28;20068;-68
2021/12/13 02:30:15;;;;;;;52.17;18.02;;;4.40;99.90;;;;;;5092247;28;20044;-67
2021/12/13 02:32:44;;;;;;;47.47;17.00;;;4.40;99.90;;;;;;5091671;28;20052;-68
2021/12/13 02:35:12;;;;;;;55.50;18.73;;;4.30;99.90;;;;;;5091076;28;20052;-68
2021/12/13 02:37:42;;;;;;;50.78;17.88;;;4.30;99.90;;;;;;5091368;28;20059;-67
2021/12/13 02:40:12;;;;;;;49.22;17.70;;;4.30;99.90;;;;;;5091427;28;20048;-67
2021/12/13 02:42:39;;;;;;;46.25;18.23;;;4.30;99.90;;;;;;5091437;28;20450;-68
2021/12/13 02:45:14;;;;;;;54.63;19.13;;;4.40;99.90;;;;;;5090716;28;20048;-68
2021/12/13 02:47:47;;;;;;;57.28;18.88;;;4.30;99.90;;;;;;5091766;28;20059;-67
2021/12/13 02:50:21;;;;;;;56.50;18.52;;;4.30;99.90;;;;;;5091646;28;20102;-68
2021/12/13 02:52:52;;;;;;;51.83;17.20;;;4.30;99.90;;;;;;5090653;28;20636;-68
2021/12/13 02:55:24;;;;;;;52.63;18.13;;;4.30;99.90;;;;;;5090244;28;20492;-67
2021/12/13 02:57:53;;;;;;;63.53;20.50;;;4.30;99.90;;;;;;5091002;28;20048;-68
2021/12/13 03:00:25;;;;;;;59.35;20.05;;;4.30;99.90;;;;;;5091082;28;20097;-68
2021/12/13 03:02:55;;;;;;;53.20;18.00;;;4.40;99.90;;;;;;5090571;28;20095;-68
2021/12/13 03:05:28;;;;;;;57.15;19.17;;;4.40;99.90;;;;;;5090299;28;20539;-68
2021/12/13 03:08:00;;;;;;;58.17;18.70;;;4.40;99.90;;;;;;5090389;28;20056;-68
2021/12/13 03:10:31;;;;;;;51.65;18.48;;;4.40;99.90;;;;;;5090578;28;20047;-68
2021/12/13 03:12:58;;;;;;;51.20;18.73;;;4.30;99.90;;;;;;5090563;28;20052;-68
2021/12/13 03:15:28;;;;;;;56.03;18.80;;;4.40;99.90;;;;;;5089710;28;20404;-67
2021/12/13 03:18:01;;;;;;;56.60;19.30;;;4.40;99.90;;;;;;5090639;28;20078;-68
2021/12/13 03:21:08;;;;;;;59.22;18.00;;;4.40;99.90;;;;;;5091012;28;20138;-68
2021/12/13 03:23:52;;;;;;;54.08;18.70;;;4.40;99.90;;;;;;5090440;28;20048;-68
2021/12/13 03:26:54;;;;;;;53.08;17.80;;;4.40;99.90;;;;;;5089821;28;20040;-68
2021/12/13 03:29:28;;;;;;;56.70;18.42;;;4.40;99.90;;;;;;5090727;28;20048;-68
2021/12/13 03:31:59;;;;;;;51.92;17.45;;;4.40;99.90;;;;;;5090128;28;20048;-68
2021/12/13 03:34:30;;;;;;;57.50;18.13;;;4.40;99.90;;;;;;5090096;28;20063;-68
2021/12/13 03:37:01;;;;;;;54.95;18.20;;;4.40;99.90;;;;;;5089834;28;20359;-68
2021/12/13 03:39:35;;;;;;;54.72;16.88;;;4.30;99.90;;;;;;5090496;28;20074;-68
2021/12/13 03:42:07;;;;;;;54.05;17.10;;;4.30;99.90;;;;;;5090205;28;20053;-68
2021/12/13 03:44:41;;;;;;;54.95;17.60;;;4.30;99.90;;;;;;5089968;28;20059;-68
2021/12/13 03:47:12;;;;;;;55.97;17.55;;;4.30;99.90;;;;;;5089975;28;20052;-67
2021/12/13 03:49:44;;;;;;;59.67;19.85;;;4.30;99.90;;;;;;5090458;28;20048;-68
2021/12/13 03:52:15;;;;;;;58.47;19.35;;;4.30;99.90;;;;;;5089996;28;20129;-68
2021/12/13 03:54:45;;;;;;;52.95;18.65;;;4.30;99.90;;;;;;5089277;28;20576;-67
2021/12/13 03:57:14;;;;;;;58.70;18.67;;;4.40;99.90;;;;;;5089549;28;20065;-68
2021/12/13 03:59:43;;;;;;;64.00;19.75;;;4.40;99.90;;;;;;5090382;28;20055;-68
2021/12/13 04:02:16;;;;;;;58.17;18.02;;;4.40;99.90;;;;;;5090014;28;20438;-68
2021/12/13 04:04:48;;;;;;;61.80;18.60;;;4.40;99.90;;;;;;5089483;28;20112;-67
2021/12/13 04:07:20;;;;;;;59.17;19.08;;;4.40;99.90;;;;;;5089465;28;20048;-68
2021/12/13 04:09:55;;;;;;;55.95;18.48;;;4.30;99.90;;;;;;5090273;28;20048;-68
2021/12/13 04:12:27;;;;;;;57.70;17.70;;;4.40;99.90;;;;;;5089911;28;20059;-68
2021/12/13 04:15:00;;;;;;;65.00;19.17;;;4.40;99.90;;;;;;5088852;28;20058;-68
2021/12/13 04:17:41;;;;;;;58.22;18.75;;;4.40;99.90;;;;;;5090035;28;20153;-68
2021/12/13 04:20:14;;;;;;;56.65;17.88;;;4.40;99.90;;;;;;5089560;28;20063;-68
2021/12/13 04:22:48;;;;;;;61.35;18.60;;;4.40;99.90;;;;;;5089405;28;20052;-68
2021/12/13 04:25:21;;;;;;;56.30;17.60;;;4.40;99.90;;;;;;5088813;28;20101;-68
2021/12/13 04:27:56;;;;;;;65.40;19.25;;;4.40;99.90;;;;;;5089331;28;20101;-68
2021/12/13 04:30:28;;;;;;;60.75;18.85;;;4.30;99.90;;;;;;5090202;28;20139;-68
2021/12/13 04:32:59;;;;;;;62.22;19.13;;;4.40;99.90;;;;;;5089594;28;20568;-68
2021/12/13 04:35:27;;;;;;;60.58;18.23;;;4.40;99.90;;;;;;5088977;28;20052;-68
2021/12/13 04:37:57;;;;;;;56.20;19.83;;;4.40;99.90;;;;;;5089493;28;20051;-68
2021/12/13 04:40:29;;;;;;;58.05;18.23;;;4.50;99.90;;;;;;5090926;28;20056;-68
2021/12/13 04:43:01;;;;;;;62.20;18.95;;;4.50;99.90;;;;;;5089911;28;20411;-68
2021/12/13 04:45:30;;;;;;;60.67;19.60;;;4.50;99.90;;;;;;5089379;28;20105;-68
2021/12/13 04:48:04;;;;;;;62.47;19.42;;;4.50;99.90;;;;;;5089873;28;20044;-68
2021/12/13 04:50:34;;;;;;;67.05;19.90;;;4.50;99.90;;;;;;5089699;28;20048;-68
2021/12/13 04:53:02;;;;;;;59.50;20.42;;;4.40;99.90;;;;;;5089074;28;20098;-68
2021/12/13 04:55:33;;;;;;;53.70;18.75;;;4.40;99.90;;;;;;5088812;28;20094;-68
2021/12/13 04:58:03;;;;;;;56.75;19.73;;;4.50;99.90;;;;;;5089661;28;20105;-68
2021/12/13 05:00:33;;;;;;;57.38;18.67;;;4.50;99.90;;;;;;5089838;28;20066;-68
2021/12/13 05:03:02;;;;;;;64.22;19.20;;;4.50;99.90;;;;;;5089415;28;20113;-68
2021/12/13 05:05:31;;;;;;;59.28;19.40;;;4.50;99.90;;;;;;5089286;28;20048;-68
2021/12/13 05:07:59;;;;;;;60.60;20.90;;;4.60;99.90;;;;;;5088888;28;20492;-68
2021/12/13 05:10:26;;;;;;;54.30;18.88;;;4.60;99.90;;;;;;5089561;28;20105;-68
2021/12/13 05:13:09;;;;;;;50.83;18.67;;;4.60;99.90;;;;;;5089474;28;20097;-68
2021/12/13 05:15:39;;;;;;;60.60;20.52;;;4.60;99.90;;;;;;5088952;28;20059;-68
2021/12/13 05:18:10;;;;;;;59.78;20.35;;;4.60;99.90;;;;;;5089289;28;20056;-70
2021/12/13 05:20:42;;;;;;;61.63;19.25;;;4.60;99.90;;;;;;5089209;28;20048;-68
2021/12/13 05:23:13;;;;;;;60.20;18.67;;;4.60;99.90;;;;;;5095420;28;20052;-69
2021/12/13 05:25:43;;;;;;;60.20;18.67;;;4.60;99.90;;;;;;5101361;28;20077;-69
2021/12/13 05:28:14;;;;;;;61.67;19.45;;;4.60;99.90;;;;;;5097204;28;20044;-69
2021/12/13 05:30:51;;;;;;;56.95;19.45;;;4.60;99.90;;;;;;5093807;28;20052;-69
2021/12/13 05:33:21;;;;;;;62.70;19.60;;;4.60;99.90;;;;;;5093236;28;20099;-69
2021/12/13 05:35:53;;;;;;;63.85;19.40;;;4.60;99.90;;;;;;5093541;28;20056;-68
2021/12/13 05:38:28;;;;;;;66.93;19.92;;;4.60;99.90;;;;;;5097135;28;20504;-68
2021/12/13 05:40:55;;;;;;;73.90;21.90;;;4.60;99.90;;;;;;5097044;28;20044;-70
2021/12/13 05:43:27;;;;;;;66.90;20.42;;;4.60;99.90;;;;;;5092857;28;20078;-68
2021/12/13 05:45:59;;;;;;;58.90;19.20;;;4.70;99.90;;;;;;5091980;28;20056;-68
2021/12/13 05:48:45;;;;;;;61.45;19.08;;;4.60;99.90;;;;;;5092552;28;20048;-69
2021/12/13 05:51:29;;;;;;;60.08;19.27;;;4.60;99.90;;;;;;5092771;28;20101;-69
2021/12/13 05:54:01;;;;;;;67.72;19.42;;;4.60;99.90;;;;;;5092195;28;20056;-69
2021/12/13 05:56:33;;;;;;;68.15;21.42;;;4.70;99.90;;;;;;5091701;28;20051;-68
2021/12/13 05:59:16;;;;;;;71.45;20.73;;;4.70;99.90;;;;;;5092300;28;20074;-68
2021/12/13 06:01:58;;;;;;;62.08;20.00;;;4.70;99.90;;;;;;5092817;28;20405;-68
2021/12/13 06:04:34;;;;;;;60.72;19.95;;;4.70;99.90;;;;;;5092247;28;20297;-69
2021/12/13 06:07:11;;;;;;;70.43;18.70;;;4.70;99.90;;;;;;5091984;28;20105;-68
2021/12/13 06:09:50;;;;;;;;;;;4.70;99.90;;;;;;5096661;28;20071;-68
2021/12/13 06:12:27;;;;;;;63.80;19.08;;;4.70;99.90;;;;;;5098222;28;19927;-68
2021/12/13 06:15:02;;;;;;;70.90;20.70;;;4.70;99.90;;;;;;5092119;28;20052;-69
2021/12/13 06:17:32;;;;;;;61.95;20.15;;;4.60;99.90;;;;;;5092257;28;20109;-68
2021/12/13 06:20:07;;;;;;;69.40;20.83;;;4.60;99.90;;;;;;5091773;28;20048;-69
2021/12/13 06:22:35;;;;;;;66.70;21.25;;;4.60;99.90;;;;;;5092172;28;20102;-69
2021/12/13 06:25:06;;;;;;;59.90;20.98;;;4.70;99.90;;;;;;5090477;28;20499;-69
2021/12/13 06:27:42;;;;;;;67.78;21.33;;;4.70;99.90;;;;;;5091879;28;20109;-68
2021/12/13 06:30:19;;;;;;;59.35;19.85;;;4.70;99.90;;;;;;5091462;28;20552;-69
2021/12/13 06:32:53;;;;;;;59.92;18.83;;;4.70;99.90;;;;;;5091746;28;20106;-68
2021/12/13 06:35:37;;;;;;;61.53;20.23;;;4.70;99.90;;;;;;5091110;28;20139;-68
2021/12/13 06:38:26;;;;;;;70.00;21.67;;;4.70;99.90;;;;;;5091368;28;20507;-69
2021/12/13 06:40:55;;;;;;;66.72;20.30;;;4.70;99.90;;;;;;5091293;28;20052;-69
2021/12/13 06:43:28;;;;;;;70.80;21.05;;;4.80;99.90;;;;;;5091159;28;20051;-69
2021/12/13 06:45:58;;;;;;;67.75;20.08;;;4.80;99.90;;;;;;5089963;28;20133;-71
2021/12/13 06:48:35;;;;;;;64.03;21.23;;;4.70;99.90;;;;;;5091101;28;20106;-69
2021/12/13 06:51:03;;;;;;;66.82;20.38;;;4.80;99.90;;;;;;5091714;28;20044;-69
2021/12/13 06:53:30;;;;;;;67.30;19.70;;;4.70;99.90;;;;;;5091053;28;20044;-69
2021/12/13 06:55:58;;;;;;;60.33;19.80;;;4.70;99.90;;;;;;5089694;28;20044;-69
2021/12/13 06:58:27;;;;;;;65.13;20.75;;;4.80;99.90;;;;;;5090908;28;20458;-69
2021/12/13 07:01:04;;;;;;;75.18;22.05;;;4.80;99.90;;;;;;5091303;28;20052;-69
2021/12/13 07:03:34;;;;;;;67.97;21.08;;;4.80;99.90;;;;;;5091143;28;20113;-69
2021/12/13 07:06:04;;;;;;;77.40;22.33;;;4.80;99.90;;;;;;5090301;28;20423;-69
2021/12/13 07:08:34;;;;;;;77.97;22.02;;;4.80;99.90;;;;;;5090885;28;20121;-68
2021/12/13 07:11:05;;;;;;;75.07;20.55;;;4.80;99.90;;;;;;5090411;28;20048;-68
2021/12/13 07:13:35;;;;;;;75.78;22.65;;;4.80;99.90;;;;;;5091421;28;20060;-69
2021/12/13 07:16:07;;;;;;;66.47;19.42;;;4.80;99.90;;;;;;5090390;28;20465;-68
2021/12/13 07:18:44;;;;;;;57.95;18.27;;;4.80;99.90;;;;;;5091068;28;20052;-69
2021/12/13 07:21:15;;;;;;;71.15;20.05;;;4.80;99.90;;;;;;5090770;28;20135;-68
2021/12/13 07:24:00;;;;;;;65.53;19.27;;;4.70;99.90;;;;;;5090785;28;20052;-69
2021/12/13 07:26:40;;;;;;;64.93;19.95;;;4.70;99.90;;;;;;5090036;28;20059;-69
2021/12/13 07:29:10;;;;;;;62.42;19.00;;;4.70;99.90;;;;;;5090255;28;20055;-68
2021/12/13 07:31:41;;;;;;;63.38;19.25;;;4.70;99.90;;;;;;5194762;22;20410;-71
2021/12/13 07:34:16;;;;;;;67.78;19.27;;;4.70;99.90;;;;;;5110550;28;20045;-71
2021/12/13 07:36:43;;;;;;;63.67;20.75;;;4.80;99.90;;;;;;5110223;28;20051;-71
2021/12/13 07:39:15;;;;;;;58.58;19.88;;;4.80;99.90;;;;;;5110124;27;20043;-71
2021/12/13 07:41:46;;;;;;;69.18;21.23;;;4.70;99.90;;;;;;5110948;28;20039;-70
2021/12/13 07:44:26;;;;;;;56.42;17.95;;;4.80;99.90;;;;;;5110471;28;20090;-70
2021/12/13 07:47:01;;;;;;;61.33;19.63;;;4.80;99.90;;;;;;5109592;28;20047;-71
2021/12/13 07:49:33;;;;;;;58.55;20.20;;;4.90;99.90;;;;;;5109207;28;20104;-71
2021/12/13 07:52:02;;;;;;;55.67;19.80;;;4.80;99.90;;;;;;5110397;28;20093;-71
2021/12/13 07:54:38;;;;;;;65.47;19.58;;;4.90;99.90;;;;;;5110294;28;20104;-68
2021/12/13 07:57:19;;;;;;;54.30;18.10;;;4.90;99.90;;;;;;5110610;28;20491;-69
2021/12/13 07:59:46;;;;;;;57.30;19.95;;;5.00;99.90;;;;;;5110430;28;20058;-69
2021/12/13 08:02:25;;;;;;;72.07;21.63;;;5.00;99.90;;;;;;5110468;28;20074;-68
2021/12/13 08:04:56;;;;;;;56.75;19.10;;;5.00;99.90;;;;;;5109542;28;20146;-68
2021/12/13 08:07:26;;;;;;;56.60;19.65;;;5.10;99.90;;;;;;5110317;28;20051;-68
2021/12/13 08:09:56;;;;;;;50.85;18.52;;;5.10;99.90;;;;;;5109788;28;20134;-69
2021/12/13 08:12:28;;;;;;;44.88;16.77;;;5.30;99.90;;;;;;5109970;28;20086;-69
2021/12/13 08:15:08;;;;;;;50.45;18.70;;;5.30;99.90;;;;;;5109273;28;20461;-69
2021/12/13 08:17:42;;;;;;;42.15;17.58;;;5.30;99.90;;;;;;5109986;28;20525;-69
2021/12/13 08:20:12;;;;;;;44.58;17.52;;;5.30;99.90;;;;;;5109915;28;20059;-71
2021/12/13 08:22:45;;;;;;;46.10;18.42;;;5.30;99.90;;;;;;5110756;28;20051;-69
2021/12/13 08:25:17;;;;;;;54.40;19.08;;;5.30;99.90;;;;;;5109212;28;20051;-69
2021/12/13 08:27:53;;;;;;;41.58;16.85;;;5.40;99.90;;;;;;5110009;28;20044;-69
2021/12/13 08:30:23;;;;;;;44.63;17.70;;;5.40;99.90;;;;;;5109932;28;20110;-69
2021/12/13 08:33:07;;;;;;;41.05;17.20;;;5.40;99.90;;;;;;5109432;28;20101;-69
2021/12/13 08:35:50;;;;;;;45.95;17.55;;;5.50;99.90;;;;;;5108825;28;20055;-69
2021/12/13 08:38:27;;;;;;;56.17;18.05;;;5.50;99.90;;;;;;5109889;28;20044;-69
2021/12/13 08:40:55;;;;;;;50.47;17.35;;;5.50;99.90;;;;;;5113352;28;20104;-69
2021/12/13 08:43:35;;;;;;;53.75;20.35;;;5.50;99.90;;;;;;5115069;28;20059;-69
2021/12/13 08:46:03;;;;;;;54.20;18.75;;;5.50;99.90;;;;;;5113876;28;20059;-69
2021/12/13 08:48:42;;;;;;;60.88;20.13;;;5.50;99.90;;;;;;5110775;28;20052;-69
2021/12/13 08:51:09;;;;;;;54.83;19.02;;;5.50;99.90;;;;;;5109516;28;20052;-69
2021/12/13 08:53:38;;;;;;;56.53;19.65;;;5.50;99.90;;;;;;5109525;28;20081;-69
2021/12/13 08:56:10;;;;;;;55.08;19.20;;;5.40;99.90;;;;;;5109286;28;20142;-69
2021/12/13 08:58:51;;;;;;;52.20;19.98;;;5.50;99.90;;;;;;5109693;28;20052;-69
2021/12/13 09:01:19;;;;;;;53.85;20.30;;;5.40;99.90;;;;;;5113538;28;20055;-70
2021/12/13 09:03:50;;;;;;;49.95;18.38;;;5.50;99.90;;;;;;5113699;28;20043;-69
2021/12/13 09:06:31;;;;;;;46.67;18.15;;;5.50;99.90;;;;;;5112721;28;20051;-70
2021/12/13 09:09:06;;;;;;;51.35;18.70;;;5.50;99.90;;;;;;5113627;28;20052;-70
2021/12/13 09:11:38;;;;;;;49.60;17.77;;;5.50;99.90;;;;;;5113259;28;20519;-70
2021/12/13 09:14:13;;;;;;;49.40;18.63;;;5.60;99.90;;;;;;5113558;28;20052;-70
2021/12/13 09:16:54;;;;;;;50.35;18.30;;;5.70;99.90;;;;;;5112314;27;20087;-70
2021/12/13 09:19:26;;;;;;;47.67;16.63;;;5.80;99.90;;;;;;5113842;28;20416;-70
2021/12/13 09:22:00;;;;;;;49.50;17.35;;;5.80;99.90;;;;;;5113197;28;20066;-70
2021/12/13 09:24:42;;;;;;;53.28;18.95;;;5.70;99.90;;;;;;5113020;28;20047;-70
2021/12/13 09:27:44;;;;;;;43.00;17.65;;;5.80;99.90;;;;;;5112996;28;20051;-70
2021/12/13 09:30:26;;;;;;;45.33;17.13;;;5.80;99.90;;;;;;5070297;28;20055;-70
2021/12/13 09:32:57;;;;;;;47.55;17.80;;;5.90;99.90;;;;;;5108680;28;20051;-70
2021/12/13 09:35:44;;;;;;;45.90;17.10;;;5.90;99.90;;;;;;5112205;28;20055;-70
2021/12/13 09:38:58;;;;;;;40.58;17.00;;;6.00;99.90;;;;;;5113064;28;20047;-70
2021/12/13 09:41:37;;;;;;;41.05;16.42;;;6.10;99.90;;;;;;5088837;28;20085;-70
2021/12/13 09:44:17;;;;;;;46.15;18.10;;;6.10;99.90;;;;;;5113171;28;20101;-70
2021/12/13 09:46:49;;;;;;;43.75;17.38;;;6.20;99.90;;;;;;5111604;28;20051;-69
2021/12/13 09:49:24;;;;;;;44.40;17.98;;;6.20;99.90;;;;;;5112404;28;20487;-70
2021/12/13 09:51:57;;;;;;;47.13;19.20;;;6.30;99.90;;;;;;5112374;28;20047;-70
2021/12/13 09:54:28;;;;;;;48.30;17.92;;;6.30;99.90;;;;;;5112340;28;20051;-70
2021/12/13 09:56:58;;;;;;;45.17;18.77;;;6.40;99.90;;;;;;5111585;27;20047;-70
2021/12/13 09:59:30;;;;;;;43.55;18.73;;;6.40;99.90;;;;;;5112262;28;20104;-70
2021/12/13 10:01:59;;;;;;;48.03;18.23;;;6.40;99.90;;;;;;5112298;28;20083;-69
2021/12/13 10:04:31;;;;;;;44.72;17.83;;;6.40;99.90;;;;;;5111926;28;20104;-70
2021/12/13 10:07:05;;;;;;;45.53;18.70;;;6.50;99.90;;;;;;5111583;28;20449;-70
2021/12/13 10:09:35;;;;;;;53.15;20.10;;;6.70;99.90;;;;;;5112266;28;20089;-70
2021/12/13 10:12:07;;;;;;;49.22;18.27;;;6.60;99.90;;;;;;5111017;27;20083;-70
2021/12/13 10:14:37;;;;;;;47.15;17.85;;;6.60;99.90;;;;;;5111846;28;20087;-70
2021/12/13 10:17:07;;;;;;;43.47;17.80;;;6.50;99.90;;;;;;5110953;27;20530;-70
2021/12/13 10:19:37;;;;;;;49.60;17.20;;;6.50;99.90;;;;;;5114102;28;20043;-70
2021/12/13 10:22:09;;;;;;;43.50;16.95;;;6.50;99.90;;;;;;5112174;28;20109;-70
2021/12/13 10:24:39;;;;;;;46.97;18.00;;;6.50;99.90;;;;;;5111999;28;20047;-70
2021/12/13 10:27:09;;;;;;;40.28;16.75;;;6.40;99.90;;;;;;5111286;28;20100;-70
2021/12/13 10:29:38;;;;;;;38.97;15.88;;;6.50;99.90;;;;;;5111646;28;20108;-70
2021/12/13 10:32:08;;;;;;;36.13;16.05;;;6.60;99.90;;;;;;5111677;28;20289;-70
2021/12/13 10:34:41;;;;;;;39.10;15.77;;;6.70;99.90;;;;;;5111871;28;20100;-70
2021/12/13 10:37:12;;;;;;;38.67;16.35;;;6.70;99.90;;;;;;5111537;28;20086;-70
2021/12/13 10:39:43;;;;;;;40.97;15.90;;;6.80;99.90;;;;;;5111514;28;20104;-70
2021/12/13 10:42:14;;;;;;;36.08;15.15;;;6.80;99.90;;;;;;5111430;28;20487;-70
2021/12/13 10:44:44;;;;;;;39.78;16.52;;;6.70;99.90;;;;;;5111025;28;20112;-70
2021/12/13 10:47:19;;;;;;;43.65;16.13;;;6.80;99.90;;;;;;5111301;28;20047;-69
2021/12/13 10:49:49;;;;;;;36.90;15.48;;;7.00;99.90;;;;;;5111513;28;20047;-70
2021/12/13 10:52:20;;;;;;;34.05;14.55;;;7.10;99.90;;;;;;5110877;28;20199;-70
2021/12/13 10:54:51;;;;;;;32.83;14.73;;;7.10;99.90;;;;;;5110490;28;20048;-70
2021/12/13 10:57:22;;;;;;;30.27;13.07;;;7.10;99.90;;;;;;5111099;28;20055;-70
2021/12/13 10:59:50;;;;;;;28.10;13.20;;;7.20;99.90;;;;;;5111058;27;20051;-70
2021/12/13 11:02:20;;;;;;;33.40;13.52;;;7.20;99.90;;;;;;5110982;28;20384;-70
2021/12/13 11:04:50;;;;;;;29.98;14.18;;;7.30;99.90;;;;;;5110249;28;20051;-70
2021/12/13 11:07:20;;;;;;;34.03;14.52;;;7.50;99.90;;;;;;5110781;28;20472;-69
2021/12/13 11:09:48;;;;;;;29.25;13.52;;;7.50;99.90;;;;;;5111038;28;20083;-70
2021/12/13 11:12:21;;;;;;;31.63;14.30;;;7.50;99.90;;;;;;5110743;28;20044;-70
2021/12/13 11:14:51;;;;;;;28.98;13.80;;;7.50;99.90;;;;;;5110536;28;20043;-70
2021/12/13 11:17:22;;;;;;;25.42;12.43;;;7.60;99.90;;;;;;5110309;28;20076;-70
2021/12/13 11:19:52;;;;;;;29.27;13.82;;;7.60;99.90;;;;;;5110776;28;20079;-70
2021/12/13 11:22:24;;;;;;;27.67;12.88;;;7.60;99.90;;;;;;5111702;28;20048;-70
2021/12/13 11:24:53;;;;;;;27.63;12.95;;;7.40;99.90;;;;;;5110258;28;20082;-70
2021/12/13 11:27:23;;;;;;;28.23;13.82;;;7.50;99.90;;;;;;5110252;28;20415;-70
2021/12/13 11:29:51;;;;;;;25.63;12.77;;;7.50;99.90;;;;;;5110520;28;20086;-70
2021/12/13 11:32:54;;;;;;;25.90;11.45;;;7.50;99.90;;;;;;5110537;28;20166;-70
2021/12/13 11:35:57;;;;;;;26.10;11.98;;;7.40;99.90;;;;;;5110067;28;20101;-70
2021/12/13 11:38:52;;;;;;;20.80;10.75;;;7.70;99.90;;;;;;5110242;28;20105;-70
2021/12/13 11:41:39;;;;;;;23.52;11.65;;;7.60;99.90;;;;;;5106353;28;20051;-70
2021/12/13 11:44:30;;;;;;;20.95;11.02;;;7.70;99.90;;;;;;5110048;28;20101;-70
2021/12/13 11:47:25;;;;;;;22.83;11.20;;;7.70;99.90;;;;;;5110693;28;20079;-70
2021/12/13 11:50:22;;;;;;;24.02;11.35;;;7.60;99.90;;;;;;5110593;28;20096;-70
2021/12/13 11:53:18;;;;;;;24.20;11.15;;;7.60;99.90;;;;;;5110075;28;20426;-71
2021/12/13 11:56:37;;;;;;;20.33;9.63;;;7.70;99.90;;;;;;5103866;28;20108;-70
2021/12/13 11:59:38;;;;;;;21.13;11.10;;;7.70;99.90;;;;;;5022300;28;20095;-70
2021/12/13 12:02:17;;;;;;;16.45;8.88;;;7.70;99.90;;;;;;5096299;28;20108;-71
2021/12/13 12:05:25;;;;;;;18.65;9.40;;;7.70;99.90;;;;;;5109637;28;20055;-70
2021/12/13 12:08:40;;;;;;;17.30;8.90;;;7.60;99.90;;;;;;5110282;28;20052;-70
2021/12/13 12:11:39;;;;;;;14.68;7.82;;;7.60;99.90;;;;;;5110598;28;20491;-70
2021/12/13 12:14:10;;;;;;;17.83;8.90;;;7.60;99.90;;;;;;5105484;28;20077;-70
2021/12/13 12:16:41;;;;;;;19.52;9.52;;;7.70;99.90;;;;;;5109112;28;20058;-71
2021/12/13 12:19:13;;;;;;;17.00;8.88;;;7.70;99.90;;;;;;5109796;28;20086;-70
2021/12/13 12:21:48;;;;;;;15.65;8.13;;;7.70;99.90;;;;;;5110272;28;20341;-70
2021/12/13 12:24:18;;;;;;;16.83;9.15;;;7.60;99.90;;;;;;5109985;28;20051;-70
2021/12/13 12:26:52;;;;;;;18.20;9.45;;;7.60;99.90;;;;;;5109290;28;20048;-71
2021/12/13 12:29:23;;;;;;;15.93;8.32;;;7.70;99.90;;;;;;5109724;28;20096;-70
2021/12/13 12:31:59;;;;;;;17.13;9.18;;;7.60;99.90;;;;;;5110962;28;20108;-68
2021/12/13 12:34:26;;;;;;;14.82;9.05;;;7.60;99.90;;;;;;5111026;28;20048;-69
2021/12/13 12:37:23;;;;;;;16.17;8.65;;;7.50;99.90;;;;;;5113676;28;20052;-70
2021/12/13 12:40:17;;;;;;;13.40;7.75;;;7.60;99.90;;;;;;5114610;28;20112;-70
2021/12/13 12:42:46;;;;;;;16.17;8.73;;;7.60;99.90;;;;;;5113426;28;20047;-70
2021/12/13 12:45:19;;;;;;;15.70;8.45;;;7.70;99.90;;;;;;5113868;28;20496;-70
2021/12/13 12:48:25;;;;;;;15.20;8.50;;;7.70;99.90;;;;;;5113828;28;20427;-70
2021/12/13 12:51:06;;;;;;;12.88;7.03;;;7.70;99.90;;;;;;5050986;28;20052;-70
2021/12/13 12:53:41;;;;;;;12.52;7.18;;;7.60;99.90;;;;;;5108701;28;20047;-70
2021/12/13 12:56:13;;;;;;;15.05;7.07;;;7.60;99.90;;;;;;5113371;28;20047;-70
2021/12/13 12:58:49;;;;;;;13.10;7.07;;;7.60;99.90;;;;;;5113659;28;20052;-70
2021/12/13 13:01:20;;;;;;;10.20;5.68;;;7.70;99.90;;;;;;5113845;28;20423;-70
2021/12/13 13:03:49;;;;;;;12.18;6.45;;;7.60;99.90;;;;;;5113524;28;20059;-70
2021/12/13 13:06:19;;;;;;;16.55;8.02;;;7.60;99.90;;;;;;5114657;28;20495;-70
2021/12/13 13:08:49;;;;;;;14.77;7.72;;;7.60;99.90;;;;;;5113403;28;20087;-70
2021/12/13 13:11:30;;;;;;;15.25;7.43;;;7.60;99.90;;;;;;5113401;28;20048;-70
2021/12/13 13:14:14;;;;;;;15.52;7.82;;;7.60;99.90;;;;;;5112966;28;20578;-70
2021/12/13 13:16:45;;;;;;;16.15;8.13;;;7.50;99.90;;;;;;5112657;28;20568;-70
2021/12/13 13:19:27;;;;;;;14.43;7.75;;;7.50;99.90;;;;;;5113297;28;20525;-69
2021/12/13 13:21:55;;;;;;;15.32;8.73;;;7.50;99.90;;;;;;5113459;28;20047;-69